SWR2DV EHAM-LSZH
Flight info
| Callsign | SWR2DV |
|---|---|
| Flight time | 0h 57m |
| Altitude | 35000 |
| Route | EDUPO Z739 MISGO DCT ASBON DCT TUSUK DCT LAMGO/N0442F270 T721 SUL/N0428F250 T721 RILAX |
| Aircraft | A320/M-SDE3FGHIRWY/LB1 |
Departure
| Time | 2026-05-05 09:04 |
|---|---|
| Airport | Amsterdam Airport Schiphol (EHAM) |
Arrival
| Time | 2026-05-05 10:02 |
|---|---|
| Airport | Zürich Airport (LSZH) |
| Time | Latitude | Longitude | Altitude | Speed | Heading |
|---|---|---|---|---|---|
| 2026-05-05 08:36 | 52.30509 | 4.76254 | -1 ft | 0 kts | 238° |
| 2026-05-05 08:54 | 52.30513 | 4.76264 | -1 ft | 4 kts | 240° |
| 2026-05-05 08:54 | 52.30524 | 4.76304 | -1 ft | 4 kts | 253° |
| 2026-05-05 08:54 | 52.30533 | 4.76339 | -1 ft | 3 kts | 208° |
| 2026-05-05 08:54 | 52.30536 | 4.76342 | -1 ft | 0 kts | 204° |
| 2026-05-05 08:56 | 52.30514 | 4.76354 | -1 ft | 9 kts | 151° |
| 2026-05-05 08:56 | 52.30463 | 4.76407 | -1 ft | 8 kts | 148° |
| 2026-05-05 08:56 | 52.30417 | 4.76454 | -1 ft | 10 kts | 148° |
| 2026-05-05 08:57 | 52.30343 | 4.76535 | -1 ft | 12 kts | 133° |
| 2026-05-05 08:57 | 52.30352 | 4.76673 | -1 ft | 16 kts | 57° |
| 2026-05-05 08:57 | 52.30416 | 4.76838 | -1 ft | 18 kts | 58° |
| 2026-05-05 08:57 | 52.30483 | 4.77013 | -1 ft | 19 kts | 57° |
| 2026-05-05 08:58 | 52.30552 | 4.77190 | -1 ft | 19 kts | 58° |
| 2026-05-05 08:58 | 52.30622 | 4.77373 | -1 ft | 19 kts | 57° |
| 2026-05-05 08:58 | 52.30728 | 4.77458 | -1 ft | 18 kts | 3° |
| 2026-05-05 08:58 | 52.30856 | 4.77471 | -1 ft | 19 kts | 3° |
| 2026-05-05 08:59 | 52.30985 | 4.77484 | -1 ft | 19 kts | 3° |
| 2026-05-05 08:59 | 52.31117 | 4.77494 | -1 ft | 19 kts | 3° |
| 2026-05-05 08:59 | 52.31253 | 4.77505 | -1 ft | 20 kts | 356° |
| 2026-05-05 08:59 | 52.31363 | 4.77378 | -1 ft | 21 kts | 311° |
| 2026-05-05 09:00 | 52.31461 | 4.77196 | -1 ft | 22 kts | 310° |
| 2026-05-05 09:00 | 52.31480 | 4.76957 | -1 ft | 22 kts | 268° |
| 2026-05-05 09:00 | 52.31473 | 4.76709 | -1 ft | 21 kts | 266° |
| 2026-05-05 09:00 | 52.31465 | 4.76476 | -1 ft | 20 kts | 266° |
| 2026-05-05 09:01 | 52.31457 | 4.76262 | -1 ft | 18 kts | 266° |
| 2026-05-05 09:01 | 52.31449 | 4.76068 | -1 ft | 16 kts | 266° |
| 2026-05-05 09:01 | 52.31443 | 4.75895 | -1 ft | 14 kts | 266° |
| 2026-05-05 09:01 | 52.31438 | 4.75740 | -1 ft | 13 kts | 266° |
| 2026-05-05 09:02 | 52.31433 | 4.75600 | -1 ft | 12 kts | 266° |
| 2026-05-05 09:02 | 52.31427 | 4.75473 | -1 ft | 12 kts | 266° |
| 2026-05-05 09:02 | 52.31419 | 4.75236 | -1 ft | 24 kts | 266° |
| 2026-05-05 09:02 | 52.31410 | 4.74973 | -1 ft | 23 kts | 267° |
| 2026-05-05 09:03 | 52.31406 | 4.74735 | -1 ft | 14 kts | 283° |
| 2026-05-05 09:03 | 52.31487 | 4.74670 | -1 ft | 14 kts | 356° |
| 2026-05-05 09:03 | 52.31591 | 4.74660 | -1 ft | 16 kts | 359° |
| 2026-05-05 09:03 | 52.31669 | 4.74812 | -1 ft | 33 kts | 87° |
| 2026-05-05 09:04 | 52.31697 | 4.75595 | -3 ft | 101 kts | 87° |
| 2026-05-05 09:04 | 52.31745 | 4.77048 | -2 ft | 152 kts | 87° |
| 2026-05-05 09:04 | 52.31823 | 4.78851 | 476 ft | 158 kts | 81° |
| 2026-05-05 09:04 | 52.31895 | 4.80665 | 1151 ft | 163 kts | 84° |
| 2026-05-05 09:05 | 52.31964 | 4.82623 | 1551 ft | 183 kts | 84° |
| 2026-05-05 09:05 | 52.32030 | 4.84827 | 1839 ft | 207 kts | 84° |
| 2026-05-05 09:05 | 52.31916 | 4.87316 | 2185 ft | 236 kts | 105° |
| 2026-05-05 09:05 | 52.31271 | 4.89883 | 2840 ft | 250 kts | 110° |
| 2026-05-05 09:06 | 52.30561 | 4.92539 | 3618 ft | 259 kts | 110° |
| 2026-05-05 09:06 | 52.29825 | 4.95274 | 4454 ft | 266 kts | 112° |
| 2026-05-05 09:06 | 52.29194 | 4.98134 | 5331 ft | 270 kts | 107° |
| 2026-05-05 09:06 | 52.28656 | 5.01092 | 6178 ft | 274 kts | 105° |
| 2026-05-05 09:07 | 52.28137 | 5.04118 | 6967 ft | 279 kts | 105° |
| 2026-05-05 09:07 | 52.27622 | 5.07163 | 7757 ft | 283 kts | 105° |
| 2026-05-05 09:07 | 52.27092 | 5.10279 | 8567 ft | 287 kts | 105° |
| 2026-05-05 09:07 | 52.26550 | 5.13442 | 9358 ft | 292 kts | 105° |
| 2026-05-05 09:08 | 52.25991 | 5.16662 | 10099 ft | 297 kts | 105° |
| 2026-05-05 09:08 | 52.25405 | 5.20009 | 10435 ft | 318 kts | 106° |
| 2026-05-05 09:08 | 52.24745 | 5.23588 | 10631 ft | 341 kts | 110° |
| 2026-05-05 09:08 | 52.23710 | 5.27199 | 10885 ft | 360 kts | 121° |
| 2026-05-05 09:09 | 52.22284 | 5.30608 | 11446 ft | 367 kts | 126° |
| 2026-05-05 09:09 | 52.20793 | 5.34032 | 12080 ft | 372 kts | 126° |
| 2026-05-05 09:09 | 52.19288 | 5.37494 | 12751 ft | 376 kts | 126° |
| 2026-05-05 09:09 | 52.17772 | 5.40987 | 13458 ft | 380 kts | 126° |
| 2026-05-05 09:10 | 52.16239 | 5.44516 | 14089 ft | 383 kts | 126° |
| 2026-05-05 09:10 | 52.14691 | 5.48058 | 14733 ft | 384 kts | 125° |
| 2026-05-05 09:10 | 52.13131 | 5.51617 | 15375 ft | 386 kts | 125° |
| 2026-05-05 09:10 | 52.11587 | 5.55160 | 15981 ft | 389 kts | 126° |
| 2026-05-05 09:11 | 52.10009 | 5.58774 | 16584 ft | 393 kts | 126° |
| 2026-05-05 09:11 | 52.08416 | 5.62397 | 17196 ft | 395 kts | 126° |
| 2026-05-05 09:11 | 52.06810 | 5.66044 | 17792 ft | 398 kts | 126° |
| 2026-05-05 09:11 | 52.05077 | 5.69565 | 18375 ft | 400 kts | 132° |
| 2026-05-05 09:12 | 52.03239 | 5.72990 | 18879 ft | 404 kts | 133° |
| 2026-05-05 09:12 | 52.01386 | 5.76446 | 19376 ft | 407 kts | 132° |
| 2026-05-05 09:12 | 51.99518 | 5.79929 | 19855 ft | 411 kts | 133° |
| 2026-05-05 09:12 | 51.97637 | 5.83428 | 20343 ft | 414 kts | 133° |
| 2026-05-05 09:13 | 51.95736 | 5.86972 | 20804 ft | 417 kts | 132° |
| 2026-05-05 09:13 | 51.93828 | 5.90541 | 21236 ft | 421 kts | 133° |
| 2026-05-05 09:13 | 51.91903 | 5.94139 | 21683 ft | 424 kts | 133° |
| 2026-05-05 09:13 | 51.89958 | 5.97762 | 22135 ft | 427 kts | 133° |
| 2026-05-05 09:14 | 51.88004 | 6.01403 | 22545 ft | 430 kts | 133° |
| 2026-05-05 09:14 | 51.86035 | 6.05058 | 22978 ft | 432 kts | 133° |
| 2026-05-05 09:14 | 51.84049 | 6.08730 | 23381 ft | 435 kts | 133° |
| 2026-05-05 09:14 | 51.82048 | 6.12408 | 23733 ft | 438 kts | 133° |
| 2026-05-05 09:15 | 51.80024 | 6.16114 | 24080 ft | 440 kts | 133° |
| 2026-05-05 09:15 | 51.77990 | 6.19830 | 24432 ft | 441 kts | 134° |
| 2026-05-05 09:15 | 51.75955 | 6.23551 | 24772 ft | 443 kts | 134° |
| 2026-05-05 09:15 | 51.73909 | 6.27295 | 25102 ft | 445 kts | 134° |
| 2026-05-05 09:16 | 51.71856 | 6.31041 | 25414 ft | 447 kts | 134° |
| 2026-05-05 09:16 | 51.69791 | 6.34801 | 25721 ft | 449 kts | 134° |
| 2026-05-05 09:16 | 51.67704 | 6.38590 | 26019 ft | 452 kts | 134° |
| 2026-05-05 09:16 | 51.65614 | 6.42375 | 26319 ft | 453 kts | 135° |
| 2026-05-05 09:17 | 51.63509 | 6.46178 | 26610 ft | 455 kts | 135° |
| 2026-05-05 09:17 | 51.61404 | 6.49985 | 26928 ft | 456 kts | 135° |
| 2026-05-05 09:17 | 51.59327 | 6.53749 | 27269 ft | 456 kts | 135° |
| 2026-05-05 09:17 | 51.57217 | 6.57565 | 27556 ft | 457 kts | 135° |
| 2026-05-05 09:18 | 51.55096 | 6.61385 | 27824 ft | 458 kts | 135° |
| 2026-05-05 09:18 | 51.52974 | 6.65206 | 28085 ft | 460 kts | 135° |
| 2026-05-05 09:18 | 51.50840 | 6.69050 | 28335 ft | 461 kts | 135° |
| 2026-05-05 09:18 | 51.49420 | 6.71602 | 28501 ft | 462 kts | 135° |
| 2026-05-05 09:19 | 51.47275 | 6.75445 | 28755 ft | 463 kts | 136° |
| 2026-05-05 09:19 | 51.45125 | 6.79285 | 29058 ft | 463 kts | 136° |
| 2026-05-05 09:19 | 51.42970 | 6.83128 | 29383 ft | 463 kts | 136° |
| 2026-05-05 09:19 | 51.40713 | 6.86809 | 29709 ft | 458 kts | 143° |
| 2026-05-05 09:20 | 51.38201 | 6.89877 | 30021 ft | 452 kts | 152° |
| 2026-05-05 09:20 | 51.35550 | 6.92547 | 30314 ft | 450 kts | 152° |
| 2026-05-05 09:20 | 51.32906 | 6.95205 | 30675 ft | 447 kts | 152° |
| 2026-05-05 09:20 | 51.30279 | 6.97844 | 31017 ft | 445 kts | 152° |
| 2026-05-05 09:21 | 51.27654 | 7.00487 | 31333 ft | 444 kts | 152° |
| 2026-05-05 09:21 | 51.25021 | 7.03135 | 31655 ft | 442 kts | 152° |
| 2026-05-05 09:21 | 51.22421 | 7.05744 | 31971 ft | 441 kts | 153° |
| 2026-05-05 09:21 | 51.19826 | 7.08345 | 32273 ft | 440 kts | 153° |
| 2026-05-05 09:22 | 51.17236 | 7.10934 | 32571 ft | 438 kts | 153° |
| 2026-05-05 09:22 | 51.14658 | 7.13509 | 32844 ft | 437 kts | 153° |
| 2026-05-05 09:22 | 51.12074 | 7.16085 | 33055 ft | 439 kts | 153° |
| 2026-05-05 09:22 | 51.09515 | 7.18631 | 33285 ft | 439 kts | 153° |
| 2026-05-05 09:23 | 51.06924 | 7.21206 | 33590 ft | 438 kts | 154° |
| 2026-05-05 09:23 | 51.04344 | 7.23764 | 33883 ft | 437 kts | 154° |
| 2026-05-05 09:23 | 51.01747 | 7.26259 | 34126 ft | 433 kts | 159° |
| 2026-05-05 09:23 | 50.99045 | 7.28351 | 34342 ft | 431 kts | 160° |
| 2026-05-05 09:24 | 50.96331 | 7.30393 | 34569 ft | 431 kts | 160° |
| 2026-05-05 09:24 | 50.93610 | 7.32408 | 34775 ft | 431 kts | 160° |
| 2026-05-05 09:24 | 50.90877 | 7.34418 | 34869 ft | 433 kts | 160° |
| 2026-05-05 09:25 | 50.85393 | 7.38445 | 34889 ft | 435 kts | 160° |
| 2026-05-05 09:25 | 50.79895 | 7.42487 | 34889 ft | 435 kts | 160° |
| 2026-05-05 09:26 | 50.74437 | 7.46507 | 34887 ft | 435 kts | 160° |
| 2026-05-05 09:26 | 50.68939 | 7.50559 | 34871 ft | 435 kts | 160° |
| 2026-05-05 09:27 | 50.63446 | 7.54623 | 34874 ft | 436 kts | 160° |
| 2026-05-05 09:27 | 50.57965 | 7.58687 | 34878 ft | 434 kts | 160° |
| 2026-05-05 09:28 | 50.52502 | 7.62722 | 34890 ft | 433 kts | 160° |
| 2026-05-05 09:28 | 50.47063 | 7.66701 | 34887 ft | 432 kts | 160° |
| 2026-05-05 09:29 | 50.41605 | 7.70681 | 34888 ft | 432 kts | 160° |
| 2026-05-05 09:29 | 50.36158 | 7.74660 | 34885 ft | 431 kts | 160° |
| 2026-05-05 09:30 | 50.30717 | 7.78620 | 34889 ft | 430 kts | 160° |
| 2026-05-05 09:30 | 50.25293 | 7.82568 | 34889 ft | 429 kts | 160° |
| 2026-05-05 09:31 | 50.19877 | 7.86502 | 34871 ft | 429 kts | 160° |
| 2026-05-05 09:31 | 50.14456 | 7.90426 | 34863 ft | 429 kts | 160° |
| 2026-05-05 09:32 | 50.09074 | 7.94294 | 34881 ft | 428 kts | 160° |
| 2026-05-05 09:32 | 50.03633 | 7.98197 | 34891 ft | 427 kts | 160° |
| 2026-05-05 09:33 | 49.98221 | 8.02041 | 34892 ft | 427 kts | 161° |
| 2026-05-05 09:33 | 49.92813 | 8.05855 | 34890 ft | 427 kts | 161° |
| 2026-05-05 09:34 | 49.87450 | 8.09639 | 34882 ft | 426 kts | 160° |
| 2026-05-05 09:34 | 49.82063 | 8.13441 | 34889 ft | 426 kts | 161° |
| 2026-05-05 09:35 | 49.76648 | 8.17249 | 34870 ft | 425 kts | 161° |
| 2026-05-05 09:35 | 49.68566 | 8.22921 | 34868 ft | 426 kts | 161° |
| 2026-05-05 09:36 | 49.63175 | 8.26692 | 34868 ft | 426 kts | 160° |
| 2026-05-05 09:36 | 49.57781 | 8.30465 | 34872 ft | 425 kts | 160° |
| 2026-05-05 09:37 | 49.52382 | 8.34222 | 34877 ft | 425 kts | 160° |
| 2026-05-05 09:37 | 49.46985 | 8.37959 | 34881 ft | 425 kts | 161° |
| 2026-05-05 09:38 | 49.41585 | 8.41687 | 34885 ft | 425 kts | 160° |
| 2026-05-05 09:38 | 49.36191 | 8.45408 | 34901 ft | 424 kts | 160° |
| 2026-05-05 09:39 | 49.30812 | 8.49122 | 34903 ft | 424 kts | 160° |
| 2026-05-05 09:39 | 49.25474 | 8.52796 | 34897 ft | 423 kts | 160° |
| 2026-05-05 09:40 | 49.20108 | 8.56478 | 34880 ft | 422 kts | 160° |
| 2026-05-05 09:40 | 49.14751 | 8.60141 | 34891 ft | 421 kts | 160° |
| 2026-05-05 09:41 | 49.09394 | 8.63786 | 34891 ft | 420 kts | 160° |
| 2026-05-05 09:41 | 49.04053 | 8.67427 | 34600 ft | 419 kts | 160° |
| 2026-05-05 09:42 | 49.01395 | 8.69241 | 34362 ft | 418 kts | 161° |
| 2026-05-05 09:42 | 48.98744 | 8.71043 | 34119 ft | 417 kts | 161° |
| 2026-05-05 09:42 | 48.96130 | 8.72813 | 33881 ft | 415 kts | 161° |
| 2026-05-05 09:42 | 48.93488 | 8.74598 | 33624 ft | 413 kts | 161° |
| 2026-05-05 09:43 | 48.90770 | 8.76045 | 33339 ft | 408 kts | 169° |
| 2026-05-05 09:43 | 48.89621 | 8.76439 | 33219 ft | 406 kts | 173° |
| 2026-05-05 09:43 | 48.86824 | 8.76897 | 32946 ft | 404 kts | 181° |
| 2026-05-05 09:43 | 48.84013 | 8.76672 | 32665 ft | 404 kts | 189° |
| 2026-05-05 09:44 | 48.81230 | 8.75939 | 32398 ft | 407 kts | 191° |
| 2026-05-05 09:44 | 48.78436 | 8.75181 | 31647 ft | 410 kts | 191° |
| 2026-05-05 09:44 | 48.75612 | 8.74421 | 30625 ft | 414 kts | 191° |
| 2026-05-05 09:44 | 48.72753 | 8.73658 | 29546 ft | 419 kts | 190° |
| 2026-05-05 09:45 | 48.69868 | 8.72894 | 28415 ft | 422 kts | 190° |
| 2026-05-05 09:45 | 48.67004 | 8.72138 | 27348 ft | 424 kts | 190° |
| 2026-05-05 09:45 | 48.64050 | 8.71353 | 26367 ft | 425 kts | 190° |
| 2026-05-05 09:45 | 48.61206 | 8.70593 | 25732 ft | 419 kts | 190° |
| 2026-05-05 09:46 | 48.58343 | 8.69828 | 24989 ft | 416 kts | 190° |
| 2026-05-05 09:46 | 48.55501 | 8.69070 | 24261 ft | 414 kts | 190° |
| 2026-05-05 09:46 | 48.52663 | 8.68315 | 23546 ft | 413 kts | 190° |
| 2026-05-05 09:46 | 48.49834 | 8.67566 | 22775 ft | 411 kts | 190° |
| 2026-05-05 09:47 | 48.47031 | 8.66826 | 22109 ft | 407 kts | 190° |
| 2026-05-05 09:47 | 48.44243 | 8.66090 | 21456 ft | 403 kts | 190° |
| 2026-05-05 09:47 | 48.41485 | 8.65362 | 20818 ft | 400 kts | 190° |
| 2026-05-05 09:47 | 48.38747 | 8.64639 | 20195 ft | 398 kts | 190° |
| 2026-05-05 09:48 | 48.36032 | 8.63902 | 19586 ft | 395 kts | 191° |
| 2026-05-05 09:48 | 48.33345 | 8.63116 | 19000 ft | 392 kts | 192° |
| 2026-05-05 09:48 | 48.30677 | 8.62297 | 18444 ft | 389 kts | 192° |
| 2026-05-05 09:48 | 48.28029 | 8.61469 | 17853 ft | 387 kts | 192° |
| 2026-05-05 09:49 | 48.25446 | 8.60665 | 17327 ft | 382 kts | 192° |
| 2026-05-05 09:49 | 48.22851 | 8.59868 | 16804 ft | 378 kts | 192° |
| 2026-05-05 09:49 | 48.20286 | 8.59089 | 16300 ft | 373 kts | 191° |
| 2026-05-05 09:49 | 48.17751 | 8.58327 | 15800 ft | 369 kts | 191° |
| 2026-05-05 09:50 | 48.15250 | 8.57578 | 15395 ft | 363 kts | 191° |
| 2026-05-05 09:50 | 48.12788 | 8.56844 | 14897 ft | 360 kts | 191° |
| 2026-05-05 09:50 | 48.10339 | 8.56116 | 14372 ft | 357 kts | 191° |
| 2026-05-05 09:50 | 48.07905 | 8.55395 | 13846 ft | 355 kts | 191° |
| 2026-05-05 09:51 | 48.05483 | 8.54674 | 13256 ft | 353 kts | 191° |
| 2026-05-05 09:51 | 48.03081 | 8.53958 | 12698 ft | 350 kts | 191° |
| 2026-05-05 09:51 | 48.00732 | 8.53261 | 12139 ft | 347 kts | 191° |
| 2026-05-05 09:51 | 47.98368 | 8.52561 | 11569 ft | 345 kts | 191° |
| 2026-05-05 09:52 | 47.96021 | 8.51865 | 11007 ft | 342 kts | 192° |
| 2026-05-05 09:52 | 47.93792 | 8.50833 | 10837 ft | 329 kts | 202° |
| 2026-05-05 09:52 | 47.91790 | 8.49322 | 10710 ft | 317 kts | 207° |
| 2026-05-05 09:52 | 47.89904 | 8.47789 | 10604 ft | 298 kts | 207° |
| 2026-05-05 09:53 | 47.88135 | 8.46354 | 10324 ft | 283 kts | 207° |
| 2026-05-05 09:53 | 47.86418 | 8.44966 | 9965 ft | 278 kts | 207° |
| 2026-05-05 09:53 | 47.84724 | 8.43601 | 9840 ft | 277 kts | 207° |
| 2026-05-05 09:53 | 47.83024 | 8.42233 | 9713 ft | 278 kts | 207° |
| 2026-05-05 09:54 | 47.81323 | 8.40867 | 9584 ft | 278 kts | 207° |
| 2026-05-05 09:54 | 47.79638 | 8.39512 | 9446 ft | 271 kts | 207° |
| 2026-05-05 09:54 | 47.78010 | 8.38197 | 9305 ft | 258 kts | 207° |
| 2026-05-05 09:54 | 47.76479 | 8.36954 | 9051 ft | 244 kts | 208° |
| 2026-05-05 09:55 | 47.75149 | 8.35517 | 8735 ft | 238 kts | 221° |
| 2026-05-05 09:55 | 47.74018 | 8.33733 | 8401 ft | 237 kts | 225° |
| 2026-05-05 09:55 | 47.72897 | 8.31940 | 8056 ft | 236 kts | 225° |
| 2026-05-05 09:55 | 47.71778 | 8.30158 | 7717 ft | 236 kts | 225° |
| 2026-05-05 09:56 | 47.70655 | 8.28393 | 7377 ft | 236 kts | 221° |
| 2026-05-05 09:56 | 47.69237 | 8.27197 | 6819 ft | 239 kts | 189° |
| 2026-05-05 09:56 | 47.67610 | 8.27385 | 6528 ft | 235 kts | 158° |
| 2026-05-05 09:56 | 47.66277 | 8.28751 | 6261 ft | 234 kts | 138° |
| 2026-05-05 09:57 | 47.65107 | 8.30386 | 5944 ft | 228 kts | 137° |
| 2026-05-05 09:57 | 47.63965 | 8.31978 | 5640 ft | 223 kts | 137° |
| 2026-05-05 09:57 | 47.62844 | 8.33526 | 5350 ft | 218 kts | 137° |
| 2026-05-05 09:57 | 47.61742 | 8.35044 | 5062 ft | 215 kts | 137° |
| 2026-05-05 09:58 | 47.60653 | 8.36542 | 4779 ft | 213 kts | 137° |
| 2026-05-05 09:58 | 47.59586 | 8.38009 | 4526 ft | 205 kts | 137° |
| 2026-05-05 09:58 | 47.58557 | 8.39423 | 4234 ft | 197 kts | 136° |
| 2026-05-05 09:58 | 47.57572 | 8.40777 | 3965 ft | 190 kts | 136° |
| 2026-05-05 09:59 | 47.56616 | 8.42089 | 3715 ft | 185 kts | 136° |
| 2026-05-05 09:59 | 47.55677 | 8.43378 | 3468 ft | 182 kts | 136° |
| 2026-05-05 09:59 | 47.54769 | 8.44624 | 3255 ft | 179 kts | 136° |
| 2026-05-05 09:59 | 47.53864 | 8.45865 | 3006 ft | 173 kts | 137° |
| 2026-05-05 10:00 | 47.53018 | 8.47023 | 2791 ft | 159 kts | 137° |
| 2026-05-05 10:00 | 47.52234 | 8.48097 | 2561 ft | 150 kts | 137° |
| 2026-05-05 10:00 | 47.51470 | 8.49145 | 2334 ft | 149 kts | 138° |
| 2026-05-05 10:00 | 47.50713 | 8.50180 | 2117 ft | 147 kts | 138° |
| 2026-05-05 10:01 | 47.49964 | 8.51205 | 1913 ft | 146 kts | 139° |
| 2026-05-05 10:01 | 47.49220 | 8.52227 | 1733 ft | 145 kts | 138° |
| 2026-05-05 10:01 | 47.48481 | 8.53237 | 1528 ft | 145 kts | 139° |
| 2026-05-05 10:01 | 47.47754 | 8.54230 | 1399 ft | 134 kts | 137° |
| 2026-05-05 10:02 | 47.47185 | 8.55003 | 1387 ft | 86 kts | 137° |
| 2026-05-05 10:02 | 47.46873 | 8.55427 | 1393 ft | 37 kts | 137° |
| 2026-05-05 10:02 | 47.46769 | 8.55563 | 1394 ft | 17 kts | 142° |
| 2026-05-05 10:02 | 47.46655 | 8.55651 | 1399 ft | 19 kts | 160° |
| 2026-05-05 10:03 | 47.46572 | 8.55686 | 1397 ft | 18 kts | 166° |
| 2026-05-05 10:03 | 47.46452 | 8.55727 | 1403 ft | 17 kts | 166° |
| 2026-05-05 10:03 | 47.46349 | 8.55803 | 1403 ft | 19 kts | 137° |
| 2026-05-05 10:03 | 47.46258 | 8.55927 | 1406 ft | 17 kts | 137° |
| 2026-05-05 10:04 | 47.46172 | 8.56000 | 1409 ft | 13 kts | 177° |
| 2026-05-05 10:04 | 47.46072 | 8.55986 | 1407 ft | 15 kts | 185° |
| 2026-05-05 10:04 | 47.45964 | 8.55965 | 1406 ft | 16 kts | 195° |
| 2026-05-05 10:04 | 47.45865 | 8.55914 | 1414 ft | 14 kts | 199° |
| 2026-05-05 10:05 | 47.45779 | 8.55878 | 1410 ft | 12 kts | 189° |
| 2026-05-05 10:05 | 47.45697 | 8.55864 | 1411 ft | 11 kts | 186° |
| 2026-05-05 10:05 | 47.45626 | 8.55854 | 1409 ft | 8 kts | 185° |
| 2026-05-05 10:05 | 47.45560 | 8.55843 | 1408 ft | 13 kts | 186° |
| 2026-05-05 10:06 | 47.45499 | 8.55880 | 1407 ft | 9 kts | 104° |
| 2026-05-05 10:06 | 47.45485 | 8.55952 | 1411 ft | 6 kts | 146° |
| 2026-05-05 10:06 | 47.45443 | 8.55951 | 1407 ft | 6 kts | 187° |
| 2026-05-05 10:06 | 47.45413 | 8.55946 | 1407 ft | 2 kts | 185° |
| 2026-05-05 10:07 | 47.45409 | 8.55946 | 1407 ft | 0 kts | 185° |